Keystone, Iowa
Current Conditions -  °F | °C
As of 5:55 AM on Saturday 22 Nov 2014 (Local Time) from KVTI Reporting Station
Moderate Fog Moderate Fog  
Wind Chill: 35°   Ceiling: 100
Heat Index: 35°   Visibility: 0.5mi
Dew Point: 34°   Wind: 0mph
Humidity: 95%   Direction: NA
Pressure: 29.94"   Gusts: NA
Location:  42°N, 92.2°W
Report Text: KVTI 221155Z AUTO 00000KT 1/2SM FG OVC001 02/01 A2994 RMK AO2 T00170010 10017 20017
Loading
Personal Weather Stations






























Interactive Weather Map New forecast layout! Learn more

10-Day Weather Forecast

Advertisements
Track Severe Weather on mobile